Time;durP1;ratioP1;P1;durP2;ratioP2;P2;SDS_P1;SDS_P2;PMS_P1;PMS_P2;Temp;Humidity;BMP_temperature;BMP_pressure;BME280_temperature;BME280_humidity;BME280_pressure;Samples;Min_cycle;Max_cycle;Signal;HPM_P1;HPM_P2
2021/11/01 00:01:12;;;;;;;39.70;22.67;;;;;;;5.78;100.00;100142.25;5114109;28;20036;-74
2021/11/01 00:03:41;;;;;;;41.83;23.75;;;;;;;5.96;100.00;100133.56;5113568;28;20043;-72
2021/11/01 00:06:10;;;;;;;40.10;23.83;;;;;;;6.08;100.00;100130.41;5113861;28;20035;-72
2021/11/01 00:08:41;;;;;;;47.67;24.42;;;;;;;6.26;100.00;100124.28;5113199;28;20556;-73
2021/11/01 00:11:09;;;;;;;41.92;24.27;;;;;;;6.27;100.00;100126.03;5113920;28;20048;-76
2021/11/01 00:13:38;;;;;;;43.17;23.48;;;;;;;6.36;100.00;100123.88;5113405;28;20048;-76
2021/11/01 00:16:06;;;;;;;42.78;24.27;;;;;;;6.19;100.00;100120.22;5113693;28;20066;-77
2021/11/01 00:18:34;;;;;;;41.05;22.83;;;;;;;6.18;100.00;100121.16;5113373;28;20039;-77
2021/11/01 00:21:02;;;;;;;43.35;23.20;;;;;;;6.07;100.00;100122.53;5113676;28;20043;-77
2021/11/01 00:23:30;;;;;;;41.83;22.42;;;;;;;5.95;100.00;100118.63;5113588;28;20109;-77
2021/11/01 00:26:00;;;;;;;44.47;23.33;;;;;;;5.77;100.00;100122.03;5113613;28;20453;-77
2021/11/01 00:28:29;;;;;;;39.08;22.85;;;;;;;5.66;100.00;100115.41;5113394;28;20058;-77
2021/11/01 00:30:58;;;;;;;41.88;23.30;;;;;;;5.54;100.00;100120.34;5113607;28;20435;-77
2021/11/01 00:33:26;;;;;;;39.63;22.80;;;;;;;5.48;100.00;100113.50;5112929;28;20071;-77
2021/11/01 00:35:56;;;;;;;40.40;23.30;;;;;;;5.36;100.00;100117.53;5113524;28;20477;-77
2021/11/01 00:38:24;;;;;;;38.30;22.67;;;;;;;5.38;100.00;100112.19;5113086;28;20108;-77
2021/11/01 00:40:53;;;;;;;39.75;23.02;;;;;;;5.30;100.00;100115.13;5113150;28;20043;-74
2021/11/01 00:43:22;;;;;;;40.05;22.52;;;;;;;5.26;100.00;100112.69;5113599;28;20039;-75
2021/11/01 00:45:50;;;;;;;38.78;22.83;;;;;;;5.18;100.00;100111.19;5117873;28;20043;-76
2021/11/01 00:48:19;;;;;;;39.35;23.38;;;;;;;5.09;100.00;100110.72;5117432;28;20043;-74
2021/11/01 00:50:47;;;;;;;44.55;25.27;;;;;;;5.09;100.00;100108.94;5117292;28;20040;-77
2021/11/01 00:53:16;;;;;;;43.58;24.30;;;;;;;5.05;100.00;100104.69;5117271;28;20050;-77
2021/11/01 00:55:53;;;;;;;48.28;25.50;;;;;;;5.06;100.00;100101.13;5117149;28;20097;-76
2021/11/01 00:58:24;;;;;;;44.88;23.05;;;;;;;5.26;100.00;100089.75;5116149;28;20043;-77
2021/11/01 01:00:53;;;;;;;42.25;24.13;;;;;;;5.21;100.00;100097.03;5117458;28;20083;-77
2021/11/01 01:03:23;;;;;;;47.65;23.65;;;;;;;5.15;100.00;100095.47;5116915;28;20043;-77
2021/11/01 01:05:53;;;;;;;40.33;23.40;;;;;;;5.11;100.00;100093.84;5117100;28;20074;-77
2021/11/01 01:08:22;;;;;;;39.58;21.95;;;;;;;5.06;100.00;100087.03;5117308;28;20530;-76
2021/11/01 01:10:51;;;;;;;39.92;23.20;;;;;;;4.99;100.00;100083.78;5117149;28;20046;-77
2021/11/01 01:13:22;;;;;;;40.25;23.58;;;;;;;4.95;100.00;100082.19;5116986;28;20089;-77
2021/11/01 01:15:55;;;;;;;37.78;22.55;;;;;;;4.97;100.00;100080.34;5116738;28;20040;-73
2021/11/01 01:18:27;;;;;;;40.45;23.02;;;;;;;4.97;100.00;100080.34;5117016;28;20113;-75
2021/11/01 01:20:58;;;;;;;40.70;22.63;;;;;;;4.93;100.00;100076.13;5117154;28;20052;-75
2021/11/01 01:23:27;;;;;;;37.47;22.58;;;;;;;4.89;100.00;100071.84;5116524;28;20044;-76
2021/11/01 01:25:57;;;;;;;43.95;23.02;;;;;;;4.84;100.00;100068.56;5116928;28;20118;-76
2021/11/01 01:28:27;;;;;;;40.13;22.50;;;;;;;4.80;100.00;100066.94;5116328;28;20043;-78
2021/11/01 01:30:57;;;;;;;40.38;24.00;;;;;;;4.77;100.00;100061.78;5116608;28;20159;-75
2021/11/01 01:33:25;;;;;;;36.95;22.60;;;;;;;4.67;100.00;100055.13;5116412;28;20040;-75
2021/11/01 01:35:53;;;;;;;40.22;23.27;;;;;;;4.69;100.00;100061.22;5116794;28;20040;-75
2021/11/01 01:38:22;;;;;;;39.95;22.77;;;;;;;4.64;100.00;100057.91;5116559;28;20046;-74
2021/11/01 01:40:51;;;;;;;36.00;21.67;;;;;;;4.63;100.00;100062.28;5116490;28;20036;-74
2021/11/01 01:43:19;;;;;;;39.08;23.08;;;;;;;4.62;100.00;100059.72;5116441;28;20122;-74
2021/11/01 01:45:47;;;;;;;39.33;23.50;;;;;;;4.56;100.00;100055.56;5116166;28;20288;-74
2021/11/01 01:48:19;;;;;;;43.85;23.35;;;;;;;4.55;100.00;100057.34;5116411;28;20055;-75
2021/11/01 01:50:47;;;;;;;45.47;25.20;;;;;;;4.56;100.00;100056.41;5116320;28;20047;-78
2021/11/01 01:53:15;;;;;;;52.40;28.80;;;;;;;4.56;100.00;100051.13;5115061;28;20044;-78
2021/11/01 01:55:43;;;;;;;58.42;33.85;;;;;;;4.56;100.00;100050.28;5115531;28;20047;-78
2021/11/01 01:58:12;;;;;;;55.30;29.77;;;;;;;4.53;100.00;100053.88;5116289;28;20468;-77
2021/11/01 02:00:53;;;;;;;55.67;30.95;;;;;;;4.50;100.00;100048.72;5115928;28;20065;-77
2021/11/01 02:03:23;;;;;;;56.10;28.67;;;;;;;4.39;100.00;100040.34;5116269;28;20050;-78
2021/11/01 02:06:04;;;;;;;48.03;28.02;;;;;;;4.35;100.00;100038.75;5115552;28;20122;-77
2021/11/01 02:08:41;;;;;;;47.75;27.30;;;;;;;4.56;100.00;100045.00;5115550;28;20058;-79
2021/11/01 02:11:14;;;;;;;49.00;26.80;;;;;;;4.44;100.00;100041.03;5116080;28;20040;-76
2021/11/01 02:13:50;;;;;;;43.15;24.77;;;;;;;4.35;100.00;100038.75;5115522;28;20044;-76
2021/11/01 02:16:19;;;;;;;43.10;25.38;;;;;;;4.27;100.00;100040.81;5116061;28;20476;-76
2021/11/01 02:18:52;;;;;;;38.95;22.27;;;;;;;4.54;100.00;100037.13;5115495;28;20089;-76
2021/11/01 02:21:31;;;;;;;38.90;22.30;;;;;;;4.46;100.00;100036.56;5116029;28;20040;-75
2021/11/01 02:24:05;;;;;;;39.13;22.10;;;;;;;4.30;100.00;100035.41;5115954;28;20329;-75
2021/11/01 02:26:38;;;;;;;36.10;21.92;;;;;;;4.37;100.00;100031.63;5115596;28;20040;-75
2021/11/01 02:29:07;;;;;;;35.55;21.63;;;;;;;4.44;100.00;100033.13;5115796;28;20049;-75
2021/11/01 02:31:35;;;;;;;39.47;21.92;;;;;;;4.47;100.00;100027.72;5115351;28;20139;-75
2021/11/01 02:34:04;;;;;;;35.95;21.50;;;;;;;4.33;100.00;100024.72;5115558;28;20074;-75
2021/11/01 02:36:33;;;;;;;38.40;21.67;;;;;;;4.20;100.00;100028.75;5115290;28;20500;-75
2021/11/01 02:39:02;;;;;;;40.15;22.15;;;;;;;4.06;100.00;100031.06;5115492;28;20057;-75
2021/11/01 02:41:33;;;;;;;40.67;22.88;;;;;;;3.98;100.00;100029.56;5115027;28;20477;-76
2021/11/01 02:44:05;;;;;;;38.40;22.45;;;;;;;4.04;100.00;100023.19;5115805;28;20044;-75
2021/11/01 02:46:36;;;;;;;36.55;21.38;;;;;;;4.25;100.00;100027.69;5114725;28;20056;-75
2021/11/01 02:49:05;;;;;;;34.85;20.75;;;;;;;4.35;100.00;100022.91;5114276;28;20082;-75
2021/11/01 02:51:33;;;;;;;37.92;21.20;;;;;;;4.34;100.00;100021.16;5114602;28;20043;-75
2021/11/01 02:54:04;;;;;;;38.17;21.17;;;;;;;4.32;100.00;100023.00;5115214;28;20077;-75
2021/11/01 02:56:33;;;;;;;38.63;21.70;;;;;;;4.36;100.00;100014.06;5114785;28;20547;-76
2021/11/01 02:59:02;;;;;;;38.90;21.30;;;;;;;4.32;100.00;100015.94;5114778;28;20109;-75
2021/11/01 03:01:32;;;;;;;40.25;21.90;;;;;;;4.34;100.00;100013.25;5115119;28;20496;-75
2021/11/01 03:04:01;;;;;;;43.03;22.88;;;;;;;4.11;100.00;100002.69;5115197;28;20036;-75
2021/11/01 03:06:32;;;;;;;38.53;21.98;;;;;;;3.99;100.00;99999.63;5114255;28;20048;-74
2021/11/01 03:09:02;;;;;;;40.10;23.88;;;;;;;3.92;100.00;100002.53;5114592;28;20058;-74
2021/11/01 03:11:31;;;;;;;37.80;23.15;;;;;;;3.94;100.00;100003.31;5114830;28;20047;-75
2021/11/01 03:14:00;;;;;;;43.05;22.55;;;;;;;3.97;100.00;100000.59;5114513;28;20048;-75
2021/11/01 03:16:31;;;;;;;42.05;22.83;;;;;;;3.82;100.00;100004.63;5114440;28;20126;-75
2021/11/01 03:19:07;;;;;;;41.13;22.42;;;;;;;3.69;100.00;99998.09;5114898;28;20048;-75
2021/11/01 03:21:41;;;;;;;41.50;23.02;;;;;;;3.58;100.00;99995.00;5114448;28;20067;-75
2021/11/01 03:24:11;;;;;;;43.88;23.38;;;;;;;3.56;100.00;99997.66;5114802;28;20122;-75
2021/11/01 03:26:42;;;;;;;40.67;22.83;;;;;;;3.53;100.00;99994.28;5114475;28;20130;-75
2021/11/01 03:29:12;;;;;;;46.67;22.33;;;;;;;3.50;100.00;99989.97;5113288;28;20059;-75
2021/11/01 03:31:43;;;;;;;41.47;21.58;;;;;;;3.51;100.00;99988.19;5114202;28;20123;-73
2021/11/01 03:34:12;;;;;;;41.05;22.45;;;;;;;3.49;100.00;100001.44;5114547;28;20047;-74
2021/11/01 03:36:44;;;;;;;38.83;22.90;;;;;;;3.32;100.00;99991.47;5114080;28;20051;-75
2021/11/01 03:39:14;;;;;;;36.10;21.05;;;;;;;3.27;100.00;99988.13;5114026;28;20047;-75
2021/11/01 03:41:44;;;;;;;39.47;23.15;;;;;;;3.29;100.00;99985.47;5113802;28;20042;-75
2021/11/01 03:44:17;;;;;;;39.80;23.10;;;;;;;3.56;100.00;99978.34;5114210;28;20050;-74
2021/11/01 03:46:54;;;;;;;37.47;21.85;;;;;;;3.50;100.00;99981.22;5113684;28;20048;-71
2021/11/01 03:49:24;;;;;;;39.20;21.20;;;;;;;3.59;100.00;99972.97;5113990;28;20104;-71
2021/11/01 03:52:06;;;;;;;39.78;22.42;;;;;;;3.59;100.00;99968.56;5113564;28;20545;-74
2021/11/01 03:54:35;;;;;;;37.28;21.48;;;;;;;3.64;100.00;99966.59;5113974;28;20043;-74
2021/11/01 03:57:03;;;;;;;41.95;21.42;;;;;;;3.51;100.00;99972.38;5113629;28;20062;-74
2021/11/01 03:59:33;;;;;;;35.88;20.55;;;;;;;3.63;100.00;99964.88;5113635;28;20061;-75
2021/11/01 04:02:03;;;;;;;37.38;21.73;;;;;;;3.78;100.00;99959.97;5113937;28;20040;-74
2021/11/01 04:04:32;;;;;;;38.22;21.92;;;;;;;3.77;100.00;99956.47;5113787;28;20044;-75
2021/11/01 04:07:01;;;;;;;37.50;21.65;;;;;;;3.65;100.00;99957.75;5113582;28;20127;-77
2021/11/01 04:09:29;;;;;;;40.40;22.23;;;;;;;3.61;100.00;99952.66;5113555;28;20035;-77
2021/11/01 04:11:57;;;;;;;37.95;22.02;;;;;;;3.53;100.00;99955.56;5113308;28;20059;-76
2021/11/01 04:14:27;;;;;;;39.50;21.58;;;;;;;3.34;100.00;99952.75;5113651;28;20404;-77
2021/11/01 04:16:59;;;;;;;39.05;21.42;;;;;;;3.28;100.00;99952.97;5113560;28;20044;-77
2021/11/01 04:19:42;;;;;;;38.15;21.48;;;;;;;3.37;100.00;99946.47;5112638;28;20130;-77
2021/11/01 04:22:11;;;;;;;40.17;22.08;;;;;;;3.20;100.00;99944.47;5112657;28;20058;-77
2021/11/01 04:24:39;;;;;;;33.08;20.90;;;;;;;3.31;100.00;99941.44;5113261;28;20048;-76
2021/11/01 04:27:07;;;;;;;38.30;21.33;;;;;;;3.23;100.00;99949.63;5113393;28;20499;-75
2021/11/01 04:29:36;;;;;;;35.88;20.80;;;;;;;3.14;100.00;99949.94;5113261;28;20139;-75
2021/11/01 04:32:14;;;;;;;39.25;23.00;;;;;;;3.01;100.00;99943.38;5113591;28;20040;-76
2021/11/01 04:34:47;;;;;;;38.40;21.10;;;;;;;3.20;100.00;99946.25;5113348;28;20484;-76
2021/11/01 04:37:16;;;;;;;35.53;20.85;;;;;;;3.25;100.00;99939.88;5113728;28;20048;-76
2021/11/01 04:39:57;;;;;;;42.33;23.27;;;;;;;3.08;100.00;99940.47;5113152;28;20445;-76
2021/11/01 04:53:47;;;;;;;36.45;21.17;;;;;;;3.13;100.00;99922.72;5113193;28;20085;-75
2021/11/01 04:56:20;;;;;;;38.33;21.75;;;;;;;3.16;100.00;99921.75;5113477;28;20544;-75
2021/11/01 04:58:51;;;;;;;38.75;23.23;;;;;;;3.14;100.00;99923.59;5112971;28;20051;-75
2021/11/01 05:01:23;;;;;;;39.05;23.10;;;;;;;3.04;100.00;99920.41;5113312;28;20374;-75
2021/11/01 05:03:54;;;;;;;41.38;23.13;;;;;;;2.98;100.00;99917.97;5112821;28;20036;-74
2021/11/01 05:06:26;;;;;;;42.38;23.27;;;;;;;3.04;100.00;99919.56;5113103;28;20043;-74
2021/11/01 05:08:58;;;;;;;42.55;23.70;;;;;;;2.92;100.00;99922.63;5113024;28;20067;-75
2021/11/01 05:11:32;;;;;;;42.83;23.25;;;;;;;2.92;100.00;99925.25;5113289;28;20054;-75
2021/11/01 05:14:02;;;;;;;40.95;23.27;;;;;;;2.99;100.00;99919.72;5112506;28;20039;-74
2021/11/01 05:16:41;;;;;;;45.33;25.98;;;;;;;3.12;100.00;99913.09;5113131;28;20097;-75
2021/11/01 05:19:20;;;;;;;46.30;26.42;;;;;;;3.18;100.00;99914.66;5113206;28;20040;-75
2021/11/01 05:21:58;;;;;;;47.42;27.48;;;;;;;3.24;100.00;99908.31;5112821;28;20048;-75
2021/11/01 05:24:32;;;;;;;47.85;26.48;;;;;;;3.20;100.00;99907.56;5112824;28;20039;-75
2021/11/01 05:27:23;;;;;;;46.20;26.33;;;;;;;3.24;100.00;99911.81;5112888;28;20392;-76
2021/11/01 05:29:53;;;;;;;44.00;25.38;;;;;;;3.31;100.00;99904.53;5113520;28;20035;-76
2021/11/01 05:32:24;;;;;;;44.35;25.92;;;;;;;3.38;100.00;99906.06;5116898;28;20047;-75
2021/11/01 05:34:52;;;;;;;49.67;27.08;;;;;;;3.18;100.00;99909.38;5116294;28;20043;-76
2021/11/01 05:37:22;;;;;;;45.58;25.55;;;;;;;2.98;100.00;99912.69;5116991;28;20050;-75
2021/11/01 05:39:50;;;;;;;46.00;26.15;;;;;;;3.01;100.00;99911.75;5116009;28;20063;-75
2021/11/01 05:42:19;;;;;;;45.83;25.25;;;;;;;3.23;100.00;99918.00;5116764;28;20047;-75
2021/11/01 05:44:47;;;;;;;44.67;25.20;;;;;;;3.25;100.00;99913.53;5116197;28;20057;-75
2021/11/01 05:47:18;;;;;;;45.45;25.65;;;;;;;3.29;100.00;99907.25;5116600;28;20050;-75
2021/11/01 05:49:46;;;;;;;47.05;25.83;;;;;;;3.32;100.00;99919.44;5114844;28;20052;-75
2021/11/01 05:52:19;;;;;;;48.20;26.35;;;;;;;3.29;100.00;99923.06;5116591;28;20046;-74
2021/11/01 05:54:53;;;;;;;41.85;24.35;;;;;;;3.30;100.00;99919.50;5115985;28;20040;-78
2021/11/01 05:57:26;;;;;;;;;;;;;;;3.53;100.00;99931.84;5116647;28;20122;-77
2021/11/01 06:05:42;;;;;;;39.50;21.73;;;;;;;3.48;100.00;99932.94;5112791;28;20063;-77
2021/11/01 06:13:36;;;;;;;43.72;23.05;;;;;;;3.43;100.00;99941.00;5115723;28;20048;-77
2021/11/01 06:16:05;;;;;;;43.25;24.35;;;;;;;3.40;100.00;99946.41;5115683;28;20059;-79
2021/11/01 06:18:36;;;;;;;42.58;22.90;;;;;;;3.47;100.00;99925.91;5115631;28;20043;-78
2021/11/01 06:21:06;;;;;;;41.22;23.33;;;;;;;3.53;100.00;99933.63;5115593;28;20043;-77
2021/11/01 06:23:35;;;;;;;37.92;22.38;;;;;;;3.75;100.00;99942.47;5115933;28;20104;-77
2021/11/01 06:26:05;;;;;;;37.85;21.83;;;;;;;3.78;100.00;99930.97;5115517;27;20046;-77
2021/11/01 06:28:34;;;;;;;41.97;23.63;;;;;;;3.75;100.00;99934.53;5115456;28;20071;-78
2021/11/01 06:31:07;;;;;;;43.45;22.88;;;;;;;3.79;100.00;99935.31;5115586;28;20473;-78
2021/11/01 06:33:54;;;;;;;38.15;22.00;;;;;;;3.87;100.00;99923.56;5115449;28;20044;-77
2021/11/01 06:42:20;;;;;;;39.42;23.23;;;;;;;3.85;100.00;99938.56;5114107;28;20070;-77
2021/11/01 06:45:18;;;;;;;42.05;23.67;;;;;;;3.78;100.00;99942.38;5114856;28;20055;-77
2021/11/01 06:53:49;;;;;;;41.90;23.65;;;;;;;3.88;100.00;99937.59;5112457;28;20059;-78
2021/11/01 06:56:38;;;;;;;41.65;23.15;;;;;;;3.95;100.00;99944.34;5115550;28;20052;-78
2021/11/01 07:16:08;;;;;;;42.22;22.42;;;;;;;5.06;100.00;99931.94;5113565;28;20040;-73
2021/11/01 07:18:42;;;;;;;38.33;23.05;;;;;;;5.22;100.00;99928.66;5112911;28;20054;-73
2021/11/01 08:47:35;;;;;;;30.60;17.70;;;;;;;8.20;100.00;99856.25;5095592;28;20051;-70
2021/11/01 09:04:11;;;;;;;29.20;17.02;;;;;;;8.55;99.69;99830.38;5109990;28;20070;-70
2021/11/01 09:06:51;;;;;;;28.48;17.02;;;;;;;8.55;99.34;99825.03;5115114;28;20063;-70
2021/11/01 09:20:29;;;;;;;30.58;17.23;;;;;;;9.42;95.36;99827.75;5114216;28;20054;-70
2021/11/01 09:23:15;;;;;;;27.35;16.85;;;;;;;9.71;94.03;99834.78;5114934;28;20030;-71
2021/11/01 09:25:55;;;;;;;30.63;17.13;;;;;;;9.87;92.45;99832.00;5114384;28;20043;-71
2021/11/01 09:28:29;;;;;;;25.50;16.80;;;;;;;10.05;91.22;99835.31;5114817;28;20039;-71
2021/11/01 09:36:34;;;;;;;30.33;18.08;;;;;;;9.91;92.43;99836.16;5112257;28;20035;-71
2021/11/01 09:41:51;;;;;;;28.95;16.58;;;;;;;10.25;90.36;99810.91;5111912;28;20031;-71
2021/11/01 09:44:24;;;;;;;26.85;16.63;;;;;;;10.27;89.69;99808.97;5114350;28;20035;-72
2021/11/01 09:46:56;;;;;;;28.20;16.90;;;;;;;10.14;90.09;99816.06;5115125;28;20035;-71
2021/11/01 09:49:25;;;;;;;27.90;17.60;;;;;;;10.06;90.61;99806.84;5114884;28;20042;-71
2021/11/01 09:51:56;;;;;;;28.40;17.50;;;;;;;10.10;91.02;99801.19;5114980;28;20093;-72
2021/11/01 09:54:27;;;;;;;28.38;17.27;;;;;;;10.06;91.24;99802.38;5116604;28;20043;-72
2021/11/01 09:57:01;;;;;;;32.88;17.85;;;;;;;10.03;91.34;99789.22;5115289;28;20047;-72
2021/11/01 09:59:34;;;;;;;29.83;17.27;;;;;;;10.05;91.29;99784.69;5114121;28;20414;-70
2021/11/01 10:02:07;;;;;;;26.25;17.00;;;;;;;9.93;92.09;99780.97;5114592;28;20563;-70
2021/11/01 10:04:37;;;;;;;29.42;17.52;;;;;;;9.93;91.83;99769.47;5114313;28;20044;-70
2021/11/01 10:07:18;;;;;;;27.13;17.83;;;;;;;9.93;92.06;99758.81;5114530;28;20453;-71
2021/11/01 10:09:48;;;;;;;28.75;18.05;;;;;;;10.01;91.66;99767.16;5114573;28;20078;-70
2021/11/01 10:12:22;;;;;;;26.00;17.05;;;;;;;10.04;91.23;99761.66;5114165;28;20047;-70
2021/11/01 10:14:54;;;;;;;28.08;17.58;;;;;;;10.02;91.37;99763.53;5114410;28;20143;-71
2021/11/01 10:17:34;;;;;;;29.48;17.33;;;;;;;10.09;91.33;99756.00;5113954;28;20054;-72
2021/11/01 10:20:20;;;;;;;29.42;17.75;;;;;;;10.05;91.38;99760.69;5114418;28;20477;-71
2021/11/01 10:22:48;;;;;;;28.35;17.27;;;;;;;10.09;91.42;99758.66;5114284;28;20084;-72
2021/11/01 10:25:18;;;;;;;27.20;17.05;;;;;;;9.99;91.42;99742.44;5114471;28;20035;-72
2021/11/01 10:27:52;;;;;;;26.27;16.60;;;;;;;10.07;91.43;99734.78;5114321;28;20124;-72
2021/11/01 10:30:25;;;;;;;26.25;15.88;;;;;;;10.21;90.32;99736.53;5113736;28;20035;-72
2021/11/01 10:32:55;;;;;;;25.55;15.35;;;;;;;10.27;90.10;99726.34;5114492;28;20435;-72
2021/11/01 10:35:25;;;;;;;30.60;15.77;;;;;;;10.25;90.20;99728.28;5113808;28;20051;-73
2021/11/01 10:38:08;;;;;;;28.10;16.38;;;;;;;10.22;90.31;99727.59;5114278;28;20122;-72
2021/11/01 10:40:41;;;;;;;27.15;15.63;;;;;;;10.18;90.85;99720.75;5113372;28;20093;-72
2021/11/01 10:57:44;;;;;;;26.05;15.93;;;;;;;10.53;89.52;99702.41;5113746;28;20395;-72
2021/11/01 11:11:32;;;;;;;30.20;16.40;;;;;;;11.08;87.80;99685.19;5099403;28;20130;-72
2021/11/01 11:14:05;;;;;;;23.80;15.07;;;;;;;11.38;85.74;99677.66;5103744;28;20109;-73
2021/11/01 11:19:31;;;;;;;23.50;15.27;;;;;;;11.59;84.78;99671.72;5071079;28;20107;-74
2021/11/01 11:22:29;;;;;;;25.48;15.73;;;;;;;11.56;85.02;99669.25;5111992;28;20055;-76
2021/11/01 11:31:05;;;;;;;24.55;15.20;;;;;;;11.60;84.25;99655.59;5071113;28;20492;-75
2021/11/01 11:39:32;;;;;;;21.52;15.38;;;;;;;11.65;84.37;99633.84;5111102;28;20047;-76
2021/11/01 11:47:46;;;;;;;26.45;17.48;;;;;;;11.65;85.32;99629.38;5112864;28;20096;-75
2021/11/01 11:50:18;;;;;;;27.38;16.55;;;;;;;11.77;84.27;99630.25;5112932;28;20048;-78
2021/11/01 11:52:49;;;;;;;26.00;16.43;;;;;;;11.77;85.13;99624.91;5112270;28;20051;-79
2021/11/01 11:55:20;;;;;;;26.95;16.20;;;;;;;12.22;84.67;99615.28;5112326;28;20123;-76
2021/11/01 11:57:57;;;;;;;25.13;15.77;;;;;;;12.48;81.26;99613.25;5112002;28;20112;-75
2021/11/01 12:00:28;;;;;;;23.92;14.80;;;;;;;12.53;80.24;99603.03;5112142;28;20059;-74
2021/11/01 12:03:08;;;;;;;;;;;;;;;12.70;80.41;99600.88;5112025;28;20044;-74
2021/11/01 12:05:40;;;;;;;22.33;13.90;;;;;;;12.83;79.49;99609.59;5111929;28;20356;-74
2021/11/01 12:08:15;;;;;;;20.90;13.95;;;;;;;12.94;78.82;99601.59;5111282;28;20047;-74
2021/11/01 12:19:09;;;;;;;22.02;14.10;;;;;;;13.02;78.05;99567.00;5112494;28;20092;-71
2021/11/01 12:21:40;;;;;;;21.95;13.63;;;;;;;13.00;78.52;99568.97;5112403;28;20065;-72
2021/11/01 12:24:11;;;;;;;25.33;14.52;;;;;;;13.03;78.63;99550.00;5112466;28;20036;-73
2021/11/01 12:26:43;;;;;;;21.50;13.82;;;;;;;13.08;77.77;99555.81;5112721;28;20093;-72
2021/11/01 12:29:14;;;;;;;25.50;13.77;;;;;;;13.13;78.24;99553.63;5112451;28;20472;-72
2021/11/01 12:31:43;;;;;;;19.05;13.52;;;;;;;13.24;77.36;99549.25;5112724;28;20548;-76
2021/11/01 12:34:17;;;;;;;18.23;12.57;;;;;;;13.35;77.50;99552.72;5112687;28;20135;-73
2021/11/01 12:36:56;;;;;;;22.55;14.15;;;;;;;13.42;76.18;99550.41;5112476;28;20054;-77
2021/11/01 12:39:31;;;;;;;25.30;13.55;;;;;;;13.38;76.52;99546.25;5101249;28;20074;-75
2021/11/01 12:48:07;;;;;;;22.35;13.30;;;;;;;13.10;76.93;99515.53;5108978;28;20055;-75
2021/11/01 12:59:00;;;;;;;21.67;13.23;;;;;;;12.80;78.31;99513.53;5114583;28;20046;-72
2021/11/01 13:01:29;;;;;;;21.50;13.95;;;;;;;12.78;78.67;99512.81;5114587;28;20088;-72
2021/11/01 13:04:09;;;;;;;20.30;13.20;;;;;;;12.67;78.91;99518.16;5113402;28;20047;-73
2021/11/01 13:06:49;;;;;;;20.45;12.90;;;;;;;12.69;79.25;99511.72;5115308;28;20054;-72
2021/11/01 13:09:25;;;;;;;19.77;13.25;;;;;;;12.69;79.19;99517.06;5115300;28;20480;-72
2021/11/01 13:12:07;;;;;;;20.35;12.98;;;;;;;12.73;78.38;99513.16;5115228;28;20071;-72
2021/11/01 13:20:19;;;;;;;19.58;11.05;;;;;;;13.26;76.57;99497.25;5106710;28;20040;-76
2021/11/01 13:22:54;;;;;;;16.83;12.18;;;;;;;13.22;76.78;99506.53;5114707;28;20039;-74
2021/11/01 13:25:27;;;;;;;19.58;12.05;;;;;;;13.18;77.37;99500.53;5114959;28;20032;-75
2021/11/01 13:28:20;;;;;;;19.40;12.23;;;;;;;13.26;77.18;99496.41;5115120;28;20415;-73
2021/11/01 13:36:29;;;;;;;19.45;11.57;;;;;;;13.46;76.03;99488.41;5094327;28;20074;-72
2021/11/01 13:39:00;;;;;;;20.13;12.45;;;;;;;13.53;75.39;99485.22;5102720;28;20040;-73
2021/11/01 13:41:29;;;;;;;18.13;11.90;;;;;;;13.57;75.20;99474.09;5114501;28;20043;-74
2021/11/01 13:44:09;;;;;;;19.00;13.38;;;;;;;13.52;76.10;99462.94;5093397;28;20052;-71
2021/11/01 13:46:44;;;;;;;20.48;13.38;;;;;;;13.57;75.85;99463.38;5065645;28;20051;-72
2021/11/01 13:49:13;;;;;;;17.33;12.60;;;;;;;13.61;74.92;99470.19;5076823;28;20082;-71
2021/11/01 13:51:43;;;;;;;19.40;12.98;;;;;;;13.57;74.83;99465.19;5073322;28;20398;-74
2021/11/01 13:54:16;;;;;;;17.58;12.32;;;;;;;13.46;75.45;99469.66;5072349;28;20053;-72
2021/11/01 13:56:46;;;;;;;19.88;12.68;;;;;;;13.36;76.17;99462.50;5073436;28;20120;-71
2021/11/01 13:59:31;;;;;;;19.15;12.63;;;;;;;13.49;75.22;99459.63;5073787;28;20449;-72
2021/11/01 14:02:16;;;;;;;17.02;11.73;;;;;;;13.40;75.27;99459.44;5073877;28;20112;-75
2021/11/01 14:13:22;;;;;;;21.38;13.07;;;;;;;13.20;76.93;99459.41;5073584;28;20171;-75
2021/11/01 15:15:01;;;;;;;21.10;14.40;;;;;;;12.51;79.66;99428.44;5072268;28;20045;-70
2021/11/01 15:26:26;;;;;;;20.38;12.95;;;;;;;12.44;80.81;99429.91;5048673;28;20055;-69
2021/11/01 15:29:13;;;;;;;21.48;14.00;;;;;;;12.44;80.64;99427.22;5052449;28;20041;-70
2021/11/01 15:35:05;;;;;;;21.00;12.55;;;;;;;12.49;81.55;99421.53;5051838;28;20478;-71
2021/11/01 15:37:55;;;;;;;24.52;12.88;;;;;;;12.50;81.78;99421.41;5050706;28;20472;-73
2021/11/01 15:40:40;;;;;;;21.25;12.43;;;;;;;12.63;80.64;99420.38;5051846;28;20048;-72
2021/11/01 16:19:08;;;;;;;20.47;12.87;;;;;;;12.56;80.50;99378.09;5103478;28;20109;-71
2021/11/01 16:21:37;;;;;;;22.58;14.48;;;;;;;12.56;80.78;99383.47;5112820;28;20290;-71
2021/11/01 16:24:05;;;;;;;24.42;13.88;;;;;;;12.46;81.49;99387.84;5112325;28;20046;-71
2021/11/01 16:26:35;;;;;;;23.33;14.43;;;;;;;12.48;81.36;99391.25;5112724;28;20046;-71
2021/11/01 16:29:09;;;;;;;25.65;14.15;;;;;;;12.38;82.19;99389.47;5112164;28;20533;-72
2021/11/01 16:31:45;;;;;;;;;;;;;;;12.38;82.44;99395.66;5113069;28;20122;-70
2021/11/01 16:34:19;;;;;;;21.73;13.60;;;;;;;12.37;82.28;99395.78;5112555;28;19939;-71
2021/11/01 16:39:47;;;;;;;24.65;14.43;;;;;;;12.30;83.09;99392.75;5112494;28;19926;-69
2021/11/01 16:42:24;;;;;;;23.05;14.38;;;;;;;12.37;82.32;99391.28;5112250;28;20508;-71
2021/11/01 16:44:56;;;;;;;25.75;15.07;;;;;;;12.36;82.31;99392.25;5112396;28;20464;-71
2021/11/01 16:47:25;;;;;;;22.83;14.32;;;;;;;12.47;81.90;99388.72;5112426;28;20140;-71
2021/11/01 16:49:53;;;;;;;24.05;14.98;;;;;;;12.62;81.56;99382.09;5112154;28;20044;-71
2021/11/01 16:52:21;;;;;;;22.75;14.55;;;;;;;12.61;81.50;99369.69;5112270;28;20046;-70
2021/11/01 16:54:52;;;;;;;23.52;14.90;;;;;;;12.55;81.82;99365.72;5112253;28;20089;-70
2021/11/01 16:57:37;;;;;;;26.85;15.10;;;;;;;12.55;81.49;99368.38;5112421;28;20039;-70
2021/11/01 17:00:18;;;;;;;26.60;16.08;;;;;;;12.51;81.66;99366.06;5112104;28;20074;-71
2021/11/01 17:03:04;;;;;;;23.42;15.02;;;;;;;12.54;81.30;99366.66;5112207;28;20126;-70
2021/11/01 17:05:45;;;;;;;25.00;14.63;;;;;;;12.57;81.36;99366.44;5111849;28;20138;-70
2021/11/01 17:22:26;;;;;;;23.60;14.45;;;;;;;12.26;86.99;99369.91;5112103;28;20036;-71
2021/11/01 17:24:58;;;;;;;24.75;14.82;;;;;;;12.32;86.12;99366.72;5112007;28;20043;-71
2021/11/01 17:36:16;;;;;;;23.92;15.32;;;;;;;12.14;88.38;99362.84;5115820;28;20422;-75
2021/11/01 18:46:43;;;;;;;29.02;16.77;;;;;;;11.81;94.52;99327.19;5096017;28;20058;-70
2021/11/01 18:52:03;;;;;;;28.95;17.38;;;;;;;11.62;98.06;99332.25;5114022;28;20127;-71
2021/11/01 18:54:35;;;;;;;;;;;;;;;11.74;100.00;99328.59;5113860;28;20075;-71
2021/11/01 18:57:06;;;;;;;32.33;19.17;;;;;;;11.50;100.00;99330.56;5114318;28;20383;-71
2021/11/01 18:59:36;;;;;;;31.92;20.52;;;;;;;11.45;100.00;99334.44;5113948;28;20118;-71
2021/11/01 19:02:28;;;;;;;31.35;19.10;;;;;;;11.47;100.00;99327.13;5113958;28;20380;-70
2021/11/01 19:05:10;;;;;;;32.22;19.02;;;;;;;11.32;100.00;99331.03;5114162;28;20071;-71
2021/11/01 19:07:45;;;;;;;36.92;20.13;;;;;;;11.34;100.00;99329.06;5114177;28;20044;-70
2021/11/01 20:04:05;;;;;;;35.90;23.90;;;;;;;10.88;100.00;99303.25;5108931;28;20373;-71
2021/11/01 20:12:49;;;;;;;39.33;25.42;;;;;;;10.83;100.00;99288.59;5108730;28;20473;-71
2021/11/01 20:15:33;;;;;;;37.67;24.55;;;;;;;10.62;100.00;99283.06;5108824;28;20040;-71
2021/11/01 21:25:30;;;;;;;33.03;20.33;;;;;;;10.78;100.00;99256.91;5093513;28;20113;-71
2021/11/01 21:27:59;;;;;;;32.22;20.08;;;;;;;10.87;100.00;99250.88;5093729;28;20561;-71
2021/11/01 21:30:28;;;;;;;35.22;20.15;;;;;;;10.80;100.00;99260.31;5093641;28;20122;-71
2021/11/01 21:32:56;;;;;;;32.45;19.63;;;;;;;10.75;100.00;99257.16;5093771;28;20040;-71